Aktuální počasí v Česku a ve světě - METAR

Seznam meteostanic umístěných nejčasteji na letišti v ČR a ve světě

Vyhledat místa podle abecedy:
A B C D E F G H I J K L M N O P Q R S T U V W X Y Z

Filtrovat:

ID stanice:
a/nebo
Název místa (fulltext):
 
Místo (ID)Naposledy načteno 
Brno - Tuřany (Brno/Tu) 24.04.2024 12:00 UTC Zobrazit data
Místo: Brno - Tuřany
Teplota: 7 °C (pocitová: 1.2 °C)
Vítr: 4 m/s z(e) 350°
Počasí: déšť
Dohlednost: 20 km
Zákl. oblačnosti: 3/8 570 m;5/8 1350 m
Vlhkost: 71%
Baghdad (ORBS) 06.06.2012 04:00 UTC  
Bagram (KQSA) 11.12.2022 19:00 UTC Zobrazit METAR
KQSA 111900Z VRB06KT 7SM BKN050 09/04 A2991 RMK SLP126 TOO940044
Bahrain (OBBI) 24.04.2024 12:00 UTC Zobrazit METAR
OBBI 241200Z 01009KT CAVOK 32/08 Q1003 NOSIG
Baku (UBBB) 24.04.2024 12:00 UTC Zobrazit METAR
UBBB 241200Z 16014KT CAVOK 26/01 Q1018 NOSIG
Bamako (GABS) 24.04.2024 12:00 UTC Zobrazit METAR
GABS 241200Z VRB03KT CAVOK 39/15 Q1011 NOSIG
Bandar Seri Begawan (WBSB) 24.04.2024 07:00 UTC Zobrazit METAR
WBSB 240700Z 32007KT 9999 SCT015 BKN300 33/29 Q1006 NOSIG
Bangkok (VTBD) 24.04.2024 12:00 UTC Zobrazit METAR
VTBD 241200Z 18009KT 9999 FEW030 34/22 Q1004 NOSIG
Bangui (FEFF) 24.04.2024 12:00 UTC Zobrazit METAR
FEFF 241200Z 22005KT 170V280 9999 SCT013 31/23 Q1011 NOSIG
Banja Luka (LQBK) 24.04.2024 12:00 UTC Zobrazit METAR
LQBK 241200Z 33006KT 9999 FEW014 SCT023 BKN040 09/08 Q1007 NOSIG
Banjul (GBYD) 24.04.2024 12:00 UTC Zobrazit METAR
GBYD 241200Z 28009KT 9999 FEW012 31/20 Q1011
Barbados (TBPB) 24.04.2024 12:00 UTC Zobrazit METAR
TBPB 241200Z 09016KT 9999 SCT020 29/22 Q1015 NOSIG
Barcelona (LEBL) 24.04.2024 12:00 UTC Zobrazit METAR
LEBL 241200Z 21012KT 170V240 CAVOK 15/03 Q1015 NOSIG
Bari (LIBD) 24.04.2024 11:50 UTC Zobrazit METAR
LIBD 241150Z 09004KT 040V140 9999 FEW040 14/10 Q1008 RESHRA
Basle-Mulhouse (LFSB) 24.04.2024 12:00 UTC Zobrazit METAR
LFSB 241200Z AUTO 26017KT 9999 FEW028 SCT050 BKN076 07/02 Q1012 TEMPO 27015G25KT 3000 SHRAGS SCT020CB
Basse-Terre (TFFB) Zatím nenačteno  
Basseterre (TKPK) 24.04.2024 12:00 UTC Zobrazit METAR
TKPK 241200Z 08009KT 9999 BKN018 28/23 Q1016
Beijing (ZBAA) Zatím nenačteno  
Beirut (OLBA) 24.04.2024 12:00 UTC Zobrazit METAR
OLBA 241200Z 34006KT 3000 DU NSC 32/06 Q1012
Belfast (EGAA) 24.04.2024 11:50 UTC Zobrazit METAR
EGAA 241150Z AUTO 30004KT 250V360 9999 FEW020 OVC042 09/05 Q1019
Belgrade (LYBE) 24.04.2024 11:00 UTC Zobrazit METAR
LYBE 241100Z 31005KT 280V360 9999 SCT027 15/09 Q1005 NOSIG
Belize City (MZBZ) 24.04.2024 12:00 UTC Zobrazit METAR
MZBZ 241200Z 11003KT 9999 FEW020 26/24 A2998 Q1015 NOSIG
Bergen (ENBR) 24.04.2024 11:50 UTC Zobrazit METAR
ENBR 241150Z 31015KT 9999 SCT045 07/M01 Q1009 NOSIG RMK WIND 1200FT 33020KT
Berlin (EDDT) 09.11.2020 06:50 UTC Zobrazit METAR
EDDT 090650Z 09006KT 050V120 3000 BR OVC003 06/05 Q1027
Bermuda Is (TXKF) 24.04.2024 11:55 UTC Zobrazit METAR
TXKF 241155Z 31015KT 9999 BKN037 18/11 Q1019
Bern (LSZB) 24.04.2024 11:50 UTC Zobrazit METAR
LSZB 241150Z 28009KT 9999 SCT050 BKN070 BKN090 08/M01 Q1011
Billund (EKBI) 24.04.2024 11:50 UTC Zobrazit METAR
EKBI 241150Z AUTO 06006KT 020V090 9999 -RA OVC034/// 06/03 Q1006
Birmingham (EGBB) 24.04.2024 11:50 UTC Zobrazit METAR
EGBB 241150Z 35009KT 330V030 9999 BKN046 09/M01 Q1017
Bishkek (UAFM) Zatím nenačteno  
Bissau (GGOV) 24.04.2024 12:00 UTC Zobrazit METAR
GGOV 241200Z 28003KT 200V360 8000 NSC 34/19 Q1011 NOSIG
Bogota (SKBO) 24.04.2024 12:00 UTC Zobrazit METAR
SKBO 241200Z VRB02KT 9999 FEW020 15/13 Q1028 NOSIG
Bologna (LIPE) 24.04.2024 11:50 UTC Zobrazit METAR
LIPE 241150Z 28004KT 240V330 9999 SCT020 BKN040 10/06 Q1007
Bordeaux (LFBD) 24.04.2024 11:00 UTC Zobrazit METAR
LFBD 241100Z AUTO 34010KT 310V030 9999 SCT019 BKN027 BKN040 12/09 Q1019 TEMPO 4000 -SHRA BKN030TCU
Bornholm (EKRN) 24.04.2024 05:50 UTC Zobrazit METAR
EKRN 240550Z AUTO 14008KT 9999 OVC053/// 06/02 Q1009
Brasilia (SBBR) 24.04.2024 12:00 UTC Zobrazit METAR
SBBR 241200Z 08005KT 050V120 9999 FEW015 SCT100 24/19 Q1021
Bratislava (LZIB) 24.04.2024 12:00 UTC Zobrazit METAR
LZIB 241200Z 31012KT 9999 FEW012 BKN018 OVC038 06/04 Q1006 NOSIG
Brazzaville (FCBB) 24.04.2024 12:00 UTC Zobrazit METAR
FCBB 241200Z 12003KT 050V190 9999 FEW020 30/23 Q1012 NOSIG
Bremen (EDDW) 24.04.2024 11:50 UTC Zobrazit METAR
EDDW 241150Z AUTO 27007KT 9999 -RA SCT019 BKN026 BKN044 04/03 Q1003 RESHGS TEMPO SHRA BKN014CB
Brest (UMBB) Zatím nenačteno  
Brest (LFRB) 24.04.2024 12:00 UTC Zobrazit METAR
LFRB 241200Z AUTO 33004KT 2500 -DZ BR BKN006 BKN014 BKN022 10/09 Q1018 TEMPO 4000 SHRA BECMG SCT020 BKN040
Brno (LKTB) 24.04.2024 12:00 UTC Zobrazit METAR
LKTB 241200Z 35008KT 9999 -RA SCT019 BKN045 07/02 Q1006 NOSIG
Brussels (EBBR) 24.04.2024 08:50 UTC Zobrazit METAR
EBBR 240850Z 30010KT 9999 SCT026 07/03 Q1011 TEMPO 4000 SHRA
Bucharest (LRBS) 24.04.2024 12:00 UTC Zobrazit METAR
LRBS 241200Z 28013KT 240V320 9999 FEW030 19/12 Q1004 NOSIG
Budapest (LHBP) 24.04.2024 12:00 UTC Zobrazit METAR
LHBP 241200Z 31011KT 8000 -RA BKN008 OVC026 09/08 Q1004 NOSIG
Buenos Aires (SABE) 24.04.2024 12:00 UTC Zobrazit METAR
SABE 241200Z 18007KT 130V220 CAVOK 14/03 Q1019 NOSIG
Bujumbura (HBBA) 24.04.2024 11:00 UTC Zobrazit METAR
HBBA 241100Z 00000KT 9999 -RA SCT015 BKN090 25/21 Q1015 NOSIG
Burgas (LBBG) 24.04.2024 12:00 UTC Zobrazit METAR
LBBG 241200Z 21005KT 170V240 9999 SCT044 22/15 Q1005 NOSIG
Bydgoszcz (EPBY) 24.04.2024 12:00 UTC Zobrazit METAR
EPBY 241200Z 36007KT 330V060 CAVOK 10/M02 Q1006
Reklama

Krásné fotografie přírody - (nejen) tapety na pozadí do počítače

Článek
Fotogalerie jarních květin
13. dubna 2023 12:19
Článek
Fotografie slunečné zimní krajiny
7. prosince 2022 17:13
Článek
Obrázky na téma slunečno
25. srpna 2022 05:03
Článek
Obrázky květin
5. června 2022 12:12

Přidejte si Počasí Slunečno na svůj Facebook
Facebook Počasí Slunečno.cz
Aplikace pro Windows 10/11 nebo chytré mobilní telefony
Stáhněte si aplikaci Slunečno.cz na Microsoft Store Stáhněte si aplikaci Slunečno.cz na Google Play